sensor_id;sensor_type;location;lat;lon;timestamp;temperature;humidity
37782;DHT22;23621;50.878;4.584;2022-11-10T00:00:22;17.80;73.10
37782;DHT22;23621;50.878;4.584;2022-11-10T00:02:49;17.70;73.30
37782;DHT22;23621;50.878;4.584;2022-11-10T00:05:16;17.70;73.10
37782;DHT22;23621;50.878;4.584;2022-11-10T00:07:43;17.80;73.20
37782;DHT22;23621;50.878;4.584;2022-11-10T00:10:10;17.70;73.10
37782;DHT22;23621;50.878;4.584;2022-11-10T00:12:37;17.70;73.20
37782;DHT22;23621;50.878;4.584;2022-11-10T00:15:05;17.70;73.40
37782;DHT22;23621;50.878;4.584;2022-11-10T00:17:50;17.70;73.30
37782;DHT22;23621;50.878;4.584;2022-11-10T00:20:17;17.70;73.20
37782;DHT22;23621;50.878;4.584;2022-11-10T00:22:44;17.70;73.30
37782;DHT22;23621;50.878;4.584;2022-11-10T00:25:11;17.70;73.30
37782;DHT22;23621;50.878;4.584;2022-11-10T00:27:38;17.70;73.30
37782;DHT22;23621;50.878;4.584;2022-11-10T00:30:05;17.70;73.20
37782;DHT22;23621;50.878;4.584;2022-11-10T00:32:32;17.70;73.30
37782;DHT22;23621;50.878;4.584;2022-11-10T00:34:59;17.70;73.30
37782;DHT22;23621;50.878;4.584;2022-11-10T00:37:26;17.70;73.40
37782;DHT22;23621;50.878;4.584;2022-11-10T00:39:53;17.80;73.40
37782;DHT22;23621;50.878;4.584;2022-11-10T00:42:20;17.80;73.40
37782;DHT22;23621;50.878;4.584;2022-11-10T00:44:47;17.70;73.50
37782;DHT22;23621;50.878;4.584;2022-11-10T00:47:14;17.70;73.50
37782;DHT22;23621;50.878;4.584;2022-11-10T00:49:40;17.70;73.50
37782;DHT22;23621;50.878;4.584;2022-11-10T00:52:08;17.70;73.70
37782;DHT22;23621;50.878;4.584;2022-11-10T00:54:53;17.70;73.60
37782;DHT22;23621;50.878;4.584;2022-11-10T00:57:20;17.70;73.70
37782;DHT22;23621;50.878;4.584;2022-11-10T01:00:07;17.70;73.70
37782;DHT22;23621;50.878;4.584;2022-11-10T01:02:34;17.70;73.70
37782;DHT22;23621;50.878;4.584;2022-11-10T01:05:01;17.70;73.50
37782;DHT22;23621;50.878;4.584;2022-11-10T01:07:28;17.70;73.50
37782;DHT22;23621;50.878;4.584;2022-11-10T01:09:55;17.70;73.70
37782;DHT22;23621;50.878;4.584;2022-11-10T01:12:21;17.60;73.60
37782;DHT22;23621;50.878;4.584;2022-11-10T01:14:48;17.60;73.70
37782;DHT22;23621;50.878;4.584;2022-11-10T01:17:15;17.60;73.90
37782;DHT22;23621;50.878;4.584;2022-11-10T01:20:00;17.70;73.90
37782;DHT22;23621;50.878;4.584;2022-11-10T01:22:28;17.60;73.70
37782;DHT22;23621;50.878;4.584;2022-11-10T01:24:55;17.70;73.90
37782;DHT22;23621;50.878;4.584;2022-11-10T01:27:41;17.70;73.80
37782;DHT22;23621;50.878;4.584;2022-11-10T01:30:08;17.70;74.00
37782;DHT22;23621;50.878;4.584;2022-11-10T01:32:54;17.70;74.10
37782;DHT22;23621;50.878;4.584;2022-11-10T01:35:21;17.60;74.10
37782;DHT22;23621;50.878;4.584;2022-11-10T01:38:03;17.70;74.20
37782;DHT22;23621;50.878;4.584;2022-11-10T01:40:30;17.70;74.00
37782;DHT22;23621;50.878;4.584;2022-11-10T01:42:57;17.70;74.00
37782;DHT22;23621;50.878;4.584;2022-11-10T01:47:57;17.70;74.00
37782;DHT22;23621;50.878;4.584;2022-11-10T01:50:39;17.70;74.10
37782;DHT22;23621;50.878;4.584;2022-11-10T01:53:10;17.60;74.10
37782;DHT22;23621;50.878;4.584;2022-11-10T01:55:42;17.60;74.00
37782;DHT22;23621;50.878;4.584;2022-11-10T01:58:12;17.70;74.00
37782;DHT22;23621;50.878;4.584;2022-11-10T02:00:41;17.60;74.10
37782;DHT22;23621;50.878;4.584;2022-11-10T02:03:22;17.70;74.00
37782;DHT22;23621;50.878;4.584;2022-11-10T02:05:50;17.70;74.10
37782;DHT22;23621;50.878;4.584;2022-11-10T02:08:36;17.60;74.10
37782;DHT22;23621;50.878;4.584;2022-11-10T02:11:03;17.60;74.20
37782;DHT22;23621;50.878;4.584;2022-11-10T02:13:30;17.70;74.20
37782;DHT22;23621;50.878;4.584;2022-11-10T02:15:57;17.70;74.30
37782;DHT22;23621;50.878;4.584;2022-11-10T02:18:25;17.70;74.20
37782;DHT22;23621;50.878;4.584;2022-11-10T02:20:52;17.80;74.30
37782;DHT22;23621;50.878;4.584;2022-11-10T02:26:03;17.70;74.30
37782;DHT22;23621;50.878;4.584;2022-11-10T02:28:35;17.60;74.30
37782;DHT22;23621;50.878;4.584;2022-11-10T02:31:03;17.60;74.50
37782;DHT22;23621;50.878;4.584;2022-11-10T02:33:30;17.50;74.60
37782;DHT22;23621;50.878;4.584;2022-11-10T02:35:57;17.50;74.60
37782;DHT22;23621;50.878;4.584;2022-11-10T02:38:24;17.50;74.70
37782;DHT22;23621;50.878;4.584;2022-11-10T02:40:51;17.40;74.50
37782;DHT22;23621;50.878;4.584;2022-11-10T02:43:37;17.40;74.60
37782;DHT22;23621;50.878;4.584;2022-11-10T02:46:04;17.40;74.70
37782;DHT22;23621;50.878;4.584;2022-11-10T02:48:31;17.40;74.60
37782;DHT22;23621;50.878;4.584;2022-11-10T02:50:59;17.30;74.60
37782;DHT22;23621;50.878;4.584;2022-11-10T02:53:26;17.30;74.50
37782;DHT22;23621;50.878;4.584;2022-11-10T02:55:52;17.40;74.50
37782;DHT22;23621;50.878;4.584;2022-11-10T02:58:19;17.40;74.50
37782;DHT22;23621;50.878;4.584;2022-11-10T03:00:46;17.40;74.30
37782;DHT22;23621;50.878;4.584;2022-11-10T03:03:13;17.40;74.30
37782;DHT22;23621;50.878;4.584;2022-11-10T03:05:40;17.40;74.30
37782;DHT22;23621;50.878;4.584;2022-11-10T03:08:07;17.30;74.40
37782;DHT22;23621;50.878;4.584;2022-11-10T03:10:54;17.30;74.40
37782;DHT22;23621;50.878;4.584;2022-11-10T03:13:22;17.30;74.30
37782;DHT22;23621;50.878;4.584;2022-11-10T03:15:56;17.30;75.00
37782;DHT22;23621;50.878;4.584;2022-11-10T03:18:22;17.30;74.20
37782;DHT22;23621;50.878;4.584;2022-11-10T03:20:50;17.30;74.20
37782;DHT22;23621;50.878;4.584;2022-11-10T03:23:17;17.30;74.20
37782;DHT22;23621;50.878;4.584;2022-11-10T03:25:45;17.30;74.30
37782;DHT22;23621;50.878;4.584;2022-11-10T03:28:12;17.30;74.10
37782;DHT22;23621;50.878;4.584;2022-11-10T03:30:57;17.30;74.10
37782;DHT22;23621;50.878;4.584;2022-11-10T03:33:24;17.20;74.00
37782;DHT22;23621;50.878;4.584;2022-11-10T03:35:51;17.30;74.20
37782;DHT22;23621;50.878;4.584;2022-11-10T03:38:18;17.20;74.00
37782;DHT22;23621;50.878;4.584;2022-11-10T03:40:45;17.30;74.00
37782;DHT22;23621;50.878;4.584;2022-11-10T03:43:32;17.30;73.90
37782;DHT22;23621;50.878;4.584;2022-11-10T03:45:59;17.30;73.80
37782;DHT22;23621;50.878;4.584;2022-11-10T03:48:26;17.30;73.80
37782;DHT22;23621;50.878;4.584;2022-11-10T03:50:53;17.30;73.80
37782;DHT22;23621;50.878;4.584;2022-11-10T03:53:20;17.20;73.80
37782;DHT22;23621;50.878;4.584;2022-11-10T03:55:47;17.20;73.90
37782;DHT22;23621;50.878;4.584;2022-11-10T03:58:14;17.20;73.90
37782;DHT22;23621;50.878;4.584;2022-11-10T04:00:41;17.30;73.90
37782;DHT22;23621;50.878;4.584;2022-11-10T04:03:08;17.30;73.80
37782;DHT22;23621;50.878;4.584;2022-11-10T04:05:53;17.30;73.70
37782;DHT22;23621;50.878;4.584;2022-11-10T04:08:38;17.30;73.50
37782;DHT22;23621;50.878;4.584;2022-11-10T04:11:23;17.30;73.50
37782;DHT22;23621;50.878;4.584;2022-11-10T04:14:09;17.30;73.50
37782;DHT22;23621;50.878;4.584;2022-11-10T04:16:54;17.20;73.50
37782;DHT22;23621;50.878;4.584;2022-11-10T04:19:22;17.20;73.60
37782;DHT22;23621;50.878;4.584;2022-11-10T04:21:49;17.20;73.60
37782;DHT22;23621;50.878;4.584;2022-11-10T04:24:16;17.10;73.50
37782;DHT22;23621;50.878;4.584;2022-11-10T04:26:43;17.00;73.70
37782;DHT22;23621;50.878;4.584;2022-11-10T04:29:11;17.00;73.90
37782;DHT22;23621;50.878;4.584;2022-11-10T04:31:41;17.00;73.70
37782;DHT22;23621;50.878;4.584;2022-11-10T04:34:11;17.00;73.70
37782;DHT22;23621;50.878;4.584;2022-11-10T04:36:40;17.00;73.70
37782;DHT22;23621;50.878;4.584;2022-11-10T04:39:07;17.00;73.70
37782;DHT22;23621;50.878;4.584;2022-11-10T04:41:35;17.00;73.70
37782;DHT22;23621;50.878;4.584;2022-11-10T04:44:02;17.00;73.60
37782;DHT22;23621;50.878;4.584;2022-11-10T04:46:35;17.00;73.50
37782;DHT22;23621;50.878;4.584;2022-11-10T04:49:03;17.00;73.50
37782;DHT22;23621;50.878;4.584;2022-11-10T04:51:34;17.00;73.60
37782;DHT22;23621;50.878;4.584;2022-11-10T04:54:02;17.00;73.50
37782;DHT22;23621;50.878;4.584;2022-11-10T04:56:29;17.00;73.50
37782;DHT22;23621;50.878;4.584;2022-11-10T04:58:56;17.00;73.50
37782;DHT22;23621;50.878;4.584;2022-11-10T05:01:26;17.10;73.60
37782;DHT22;23621;50.878;4.584;2022-11-10T05:04:12;17.00;73.50
37782;DHT22;23621;50.878;4.584;2022-11-10T05:06:39;16.90;73.50
37782;DHT22;23621;50.878;4.584;2022-11-10T05:09:06;16.90;73.60
37782;DHT22;23621;50.878;4.584;2022-11-10T05:11:32;16.90;73.60
37782;DHT22;23621;50.878;4.584;2022-11-10T05:13:59;16.90;73.50
37782;DHT22;23621;50.878;4.584;2022-11-10T05:16:26;16.90;73.60
37782;DHT22;23621;50.878;4.584;2022-11-10T05:19:02;16.90;73.70
37782;DHT22;23621;50.878;4.584;2022-11-10T05:21:29;16.90;73.90
37782;DHT22;23621;50.878;4.584;2022-11-10T05:23:56;16.80;73.80
37782;DHT22;23621;50.878;4.584;2022-11-10T05:26:23;16.80;73.80
37782;DHT22;23621;50.878;4.584;2022-11-10T05:29:02;16.70;73.90
37782;DHT22;23621;50.878;4.584;2022-11-10T05:31:29;16.70;74.10
37782;DHT22;23621;50.878;4.584;2022-11-10T05:33:56;16.70;74.00
37782;DHT22;23621;50.878;4.584;2022-11-10T05:36:23;16.70;74.00
37782;DHT22;23621;50.878;4.584;2022-11-10T05:38:50;16.70;74.00
37782;DHT22;23621;50.878;4.584;2022-11-10T05:41:17;16.70;74.10
37782;DHT22;23621;50.878;4.584;2022-11-10T05:44:02;16.60;74.10
37782;DHT22;23621;50.878;4.584;2022-11-10T05:46:29;16.60;74.30
37782;DHT22;23621;50.878;4.584;2022-11-10T05:49:16;16.60;74.20
37782;DHT22;23621;50.878;4.584;2022-11-10T05:51:43;16.70;74.10
37782;DHT22;23621;50.878;4.584;2022-11-10T05:54:09;16.70;74.10
37782;DHT22;23621;50.878;4.584;2022-11-10T05:56:36;16.70;73.90
37782;DHT22;23621;50.878;4.584;2022-11-10T05:59:03;16.70;74.50
37782;DHT22;23621;50.878;4.584;2022-11-10T06:01:30;16.80;73.70
37782;DHT22;23621;50.878;4.584;2022-11-10T06:03:57;16.70;73.50
37782;DHT22;23621;50.878;4.584;2022-11-10T06:06:26;16.70;73.70
37782;DHT22;23621;50.878;4.584;2022-11-10T06:09:12;16.70;73.60
37782;DHT22;23621;50.878;4.584;2022-11-10T06:11:39;16.70;73.60
37782;DHT22;23621;50.878;4.584;2022-11-10T06:14:06;16.70;73.50
37782;DHT22;23621;50.878;4.584;2022-11-10T06:16:32;16.70;73.30
37782;DHT22;23621;50.878;4.584;2022-11-10T06:18:59;16.80;73.30
37782;DHT22;23621;50.878;4.584;2022-11-10T06:21:27;16.80;73.30
37782;DHT22;23621;50.878;4.584;2022-11-10T06:23:54;16.70;73.00
37782;DHT22;23621;50.878;4.584;2022-11-10T06:26:21;16.70;72.90
37782;DHT22;23621;50.878;4.584;2022-11-10T06:28:47;16.70;72.80
37782;DHT22;23621;50.878;4.584;2022-11-10T06:31:14;16.80;72.80
37782;DHT22;23621;50.878;4.584;2022-11-10T06:33:41;16.80;72.70
37782;DHT22;23621;50.878;4.584;2022-11-10T06:36:14;16.70;72.60
37782;DHT22;23621;50.878;4.584;2022-11-10T06:38:42;16.70;72.70
37782;DHT22;23621;50.878;4.584;2022-11-10T06:41:08;16.70;72.70
37782;DHT22;23621;50.878;4.584;2022-11-10T06:43:35;16.70;72.60
37782;DHT22;23621;50.878;4.584;2022-11-10T06:46:02;16.70;72.70
37782;DHT22;23621;50.878;4.584;2022-11-10T06:48:29;16.60;72.80
37782;DHT22;23621;50.878;4.584;2022-11-10T06:51:00;16.60;72.90
37782;DHT22;23621;50.878;4.584;2022-11-10T06:53:45;16.60;73.00
37782;DHT22;23621;50.878;4.584;2022-11-10T06:56:13;16.50;73.10
37782;DHT22;23621;50.878;4.584;2022-11-10T06:58:40;16.50;73.00
37782;DHT22;23621;50.878;4.584;2022-11-10T07:01:06;16.50;73.10
37782;DHT22;23621;50.878;4.584;2022-11-10T07:03:33;16.50;73.20
37782;DHT22;23621;50.878;4.584;2022-11-10T07:06:10;16.60;73.40
37782;DHT22;23621;50.878;4.584;2022-11-10T07:08:55;16.40;73.50
37782;DHT22;23621;50.878;4.584;2022-11-10T07:11:22;16.40;73.70
37782;DHT22;23621;50.878;4.584;2022-11-10T07:13:49;16.40;73.90
37782;DHT22;23621;50.878;4.584;2022-11-10T07:16:16;16.40;73.80
37782;DHT22;23621;50.878;4.584;2022-11-10T07:19:01;16.40;73.90
37782;DHT22;23621;50.878;4.584;2022-11-10T07:21:29;16.40;74.00
37782;DHT22;23621;50.878;4.584;2022-11-10T07:23:55;16.30;74.30
37782;DHT22;23621;50.878;4.584;2022-11-10T07:26:22;16.40;74.20
37782;DHT22;23621;50.878;4.584;2022-11-10T07:28:49;16.40;74.10
37782;DHT22;23621;50.878;4.584;2022-11-10T07:31:16;16.40;74.00
37782;DHT22;23621;50.878;4.584;2022-11-10T07:34:02;16.40;74.20
37782;DHT22;23621;50.878;4.584;2022-11-10T07:36:28;16.40;74.20
37782;DHT22;23621;50.878;4.584;2022-11-10T07:38:55;16.40;74.30
37782;DHT22;23621;50.878;4.584;2022-11-10T07:41:22;16.40;74.30
37782;DHT22;23621;50.878;4.584;2022-11-10T07:44:07;16.50;74.30
37782;DHT22;23621;50.878;4.584;2022-11-10T07:46:34;16.40;74.30
37782;DHT22;23621;50.878;4.584;2022-11-10T07:49:01;16.50;74.40
37782;DHT22;23621;50.878;4.584;2022-11-10T07:51:28;16.50;74.30
37782;DHT22;23621;50.878;4.584;2022-11-10T07:53:59;16.60;74.20
37782;DHT22;23621;50.878;4.584;2022-11-10T07:56:44;16.70;74.10
37782;DHT22;23621;50.878;4.584;2022-11-10T07:59:11;16.70;74.00
37782;DHT22;23621;50.878;4.584;2022-11-10T08:01:38;16.70;74.10
37782;DHT22;23621;50.878;4.584;2022-11-10T08:04:07;16.70;74.10
37782;DHT22;23621;50.878;4.584;2022-11-10T08:06:34;16.70;74.20
37782;DHT22;23621;50.878;4.584;2022-11-10T08:09:02;16.70;74.40
37782;DHT22;23621;50.878;4.584;2022-11-10T08:11:35;16.70;74.30
37782;DHT22;23621;50.878;4.584;2022-11-10T08:14:02;16.80;74.50
37782;DHT22;23621;50.878;4.584;2022-11-10T08:16:29;16.80;74.40
37782;DHT22;23621;50.878;4.584;2022-11-10T08:19:11;16.80;74.50
37782;DHT22;23621;50.878;4.584;2022-11-10T08:21:38;16.70;74.50
37782;DHT22;23621;50.878;4.584;2022-11-10T08:24:05;16.80;74.60
37782;DHT22;23621;50.878;4.584;2022-11-10T08:26:46;16.80;74.60
37782;DHT22;23621;50.878;4.584;2022-11-10T08:29:13;16.90;74.80
37782;DHT22;23621;50.878;4.584;2022-11-10T08:31:39;16.90;74.80
37782;DHT22;23621;50.878;4.584;2022-11-10T08:34:06;16.90;75.00
37782;DHT22;23621;50.878;4.584;2022-11-10T08:36:33;16.90;75.00
37782;DHT22;23621;50.878;4.584;2022-11-10T08:39:03;16.90;75.20
37782;DHT22;23621;50.878;4.584;2022-11-10T08:41:30;16.80;75.70
37782;DHT22;23621;50.878;4.584;2022-11-10T08:43:57;16.90;75.40
37782;DHT22;23621;50.878;4.584;2022-11-10T08:46:24;17.00;76.40
37782;DHT22;23621;50.878;4.584;2022-11-10T08:49:04;17.00;75.70
37782;DHT22;23621;50.878;4.584;2022-11-10T08:51:32;16.90;75.80
37782;DHT22;23621;50.878;4.584;2022-11-10T08:54:04;17.00;75.70
37782;DHT22;23621;50.878;4.584;2022-11-10T08:56:32;17.10;75.70
37782;DHT22;23621;50.878;4.584;2022-11-10T08:59:17;17.00;76.00
37782;DHT22;23621;50.878;4.584;2022-11-10T09:01:44;17.00;76.10
37782;DHT22;23621;50.878;4.584;2022-11-10T09:04:11;17.10;76.10
37782;DHT22;23621;50.878;4.584;2022-11-10T09:06:41;17.10;76.00
37782;DHT22;23621;50.878;4.584;2022-11-10T09:09:08;17.20;76.00
37782;DHT22;23621;50.878;4.584;2022-11-10T09:11:36;17.20;76.00
37782;DHT22;23621;50.878;4.584;2022-11-10T09:14:03;17.30;76.00
37782;DHT22;23621;50.878;4.584;2022-11-10T09:16:48;17.30;75.90
37782;DHT22;23621;50.878;4.584;2022-11-10T09:19:15;17.40;76.00
37782;DHT22;23621;50.878;4.584;2022-11-10T09:21:45;17.40;75.70
37782;DHT22;23621;50.878;4.584;2022-11-10T09:24:12;17.50;75.80
37782;DHT22;23621;50.878;4.584;2022-11-10T09:26:39;17.40;75.80
37782;DHT22;23621;50.878;4.584;2022-11-10T09:29:06;17.50;75.90
37782;DHT22;23621;50.878;4.584;2022-11-10T09:31:33;17.60;75.80
37782;DHT22;23621;50.878;4.584;2022-11-10T09:34:00;17.60;75.70
37782;DHT22;23621;50.878;4.584;2022-11-10T09:36:30;17.70;75.60
37782;DHT22;23621;50.878;4.584;2022-11-10T09:39:15;17.70;75.70
37782;DHT22;23621;50.878;4.584;2022-11-10T09:41:43;17.70;75.60
37782;DHT22;23621;50.878;4.584;2022-11-10T09:44:39;17.70;75.70
37782;DHT22;23621;50.878;4.584;2022-11-10T09:47:22;17.70;75.70
37782;DHT22;23621;50.878;4.584;2022-11-10T09:50:19;17.70;75.60
37782;DHT22;23621;50.878;4.584;2022-11-10T09:52:49;17.80;75.40
37782;DHT22;23621;50.878;4.584;2022-11-10T09:55:30;17.70;75.50
37782;DHT22;23621;50.878;4.584;2022-11-10T09:57:57;17.80;75.70
37782;DHT22;23621;50.878;4.584;2022-11-10T10:00:27;17.80;75.60
37782;DHT22;23621;50.878;4.584;2022-11-10T10:03:04;17.90;75.60
37782;DHT22;23621;50.878;4.584;2022-11-10T10:08:22;18.10;75.60
37782;DHT22;23621;50.878;4.584;2022-11-10T10:17:07;18.10;75.40
37782;DHT22;23621;50.878;4.584;2022-11-10T10:25:21;18.20;75.30
37782;DHT22;23621;50.878;4.584;2022-11-10T10:27:56;18.30;75.40
37782;DHT22;23621;50.878;4.584;2022-11-10T10:30:23;18.30;75.30
37782;DHT22;23621;50.878;4.584;2022-11-10T10:32:56;18.40;75.20
37782;DHT22;23621;50.878;4.584;2022-11-10T10:35:23;18.50;75.20
37782;DHT22;23621;50.878;4.584;2022-11-10T10:37:52;18.40;75.00
37782;DHT22;23621;50.878;4.584;2022-11-10T10:40:23;18.50;75.00
37782;DHT22;23621;50.878;4.584;2022-11-10T10:43:08;18.40;74.70
37782;DHT22;23621;50.878;4.584;2022-11-10T10:45:36;18.50;74.70
37782;DHT22;23621;50.878;4.584;2022-11-10T10:48:28;18.50;74.50
37782;DHT22;23621;50.878;4.584;2022-11-10T10:50:55;18.60;74.10
37782;DHT22;23621;50.878;4.584;2022-11-10T10:53:23;18.60;74.00
37782;DHT22;23621;50.878;4.584;2022-11-10T10:58:36;18.70;73.90
37782;DHT22;23621;50.878;4.584;2022-11-10T11:04:05;18.90;74.40
37782;DHT22;23621;50.878;4.584;2022-11-10T11:06:33;19.00;73.40
37782;DHT22;23621;50.878;4.584;2022-11-10T11:09:18;19.10;73.60
37782;DHT22;23621;50.878;4.584;2022-11-10T11:12:13;19.10;72.80
37782;DHT22;23621;50.878;4.584;2022-11-10T11:14:51;19.20;72.00
37782;DHT22;23621;50.878;4.584;2022-11-10T11:17:21;19.10;72.00
37782;DHT22;23621;50.878;4.584;2022-11-10T11:19:51;19.10;71.90
37782;DHT22;23621;50.878;4.584;2022-11-10T11:25:41;19.20;71.40
37782;DHT22;23621;50.878;4.584;2022-11-10T11:36:21;19.20;71.00
37782;DHT22;23621;50.878;4.584;2022-11-10T11:39:34;19.20;71.00
37782;DHT22;23621;50.878;4.584;2022-11-10T11:50:49;19.40;70.70
37782;DHT22;23621;50.878;4.584;2022-11-10T11:53:36;19.30;70.60
37782;DHT22;23621;50.878;4.584;2022-11-10T11:59:02;19.40;70.40
37782;DHT22;23621;50.878;4.584;2022-11-10T12:02:11;19.40;70.10
37782;DHT22;23621;50.878;4.584;2022-11-10T12:10:25;19.60;69.70
37782;DHT22;23621;50.878;4.584;2022-11-10T12:13:27;19.60;69.40
37782;DHT22;23621;50.878;4.584;2022-11-10T12:16:04;19.60;69.50
37782;DHT22;23621;50.878;4.584;2022-11-10T12:18:45;19.70;69.40
37782;DHT22;23621;50.878;4.584;2022-11-10T12:26:57;19.80;69.40
37782;DHT22;23621;50.878;4.584;2022-11-10T12:32:39;19.80;69.10
37782;DHT22;23621;50.878;4.584;2022-11-10T12:35:22;19.80;68.70
37782;DHT22;23621;50.878;4.584;2022-11-10T12:38:12;19.80;68.30
37782;DHT22;23621;50.878;4.584;2022-11-10T12:40:45;19.90;68.30
37782;DHT22;23621;50.878;4.584;2022-11-10T12:46:05;20.00;68.50
37782;DHT22;23621;50.878;4.584;2022-11-10T12:48:45;20.00;68.50
37782;DHT22;23621;50.878;4.584;2022-11-10T12:51:26;20.00;68.50
37782;DHT22;23621;50.878;4.584;2022-11-10T12:53:55;20.10;69.20
37782;DHT22;23621;50.878;4.584;2022-11-10T12:59:39;20.20;68.10
37782;DHT22;23621;50.878;4.584;2022-11-10T13:02:31;20.20;68.50
37782;DHT22;23621;50.878;4.584;2022-11-10T13:05:28;20.20;67.70
37782;DHT22;23621;50.878;4.584;2022-11-10T13:11:03;20.10;67.80
37782;DHT22;23621;50.878;4.584;2022-11-10T13:13:46;20.10;67.80
37782;DHT22;23621;50.878;4.584;2022-11-10T13:19:07;20.10;67.50
37782;DHT22;23621;50.878;4.584;2022-11-10T13:24:40;20.20;67.50
37782;DHT22;23621;50.878;4.584;2022-11-10T13:30:07;20.10;68.00
37782;DHT22;23621;50.878;4.584;2022-11-10T13:32:35;20.20;68.10
37782;DHT22;23621;50.878;4.584;2022-11-10T13:37:57;20.20;67.70
37782;DHT22;23621;50.878;4.584;2022-11-10T13:40:37;20.20;67.90
37782;DHT22;23621;50.878;4.584;2022-11-10T13:43:15;20.20;67.80
37782;DHT22;23621;50.878;4.584;2022-11-10T13:45:46;20.20;67.80
37782;DHT22;23621;50.878;4.584;2022-11-10T13:48:19;20.30;67.90
37782;DHT22;23621;50.878;4.584;2022-11-10T13:51:30;20.20;67.80
37782;DHT22;23621;50.878;4.584;2022-11-10T13:57:34;20.20;67.60
37782;DHT22;23621;50.878;4.584;2022-11-10T14:00:28;20.30;67.70
37782;DHT22;23621;50.878;4.584;2022-11-10T14:02:58;20.30;67.90
37782;DHT22;23621;50.878;4.584;2022-11-10T14:08:28;20.30;68.20
37782;DHT22;23621;50.878;4.584;2022-11-10T14:10:59;20.30;68.30
37782;DHT22;23621;50.878;4.584;2022-11-10T14:13:44;20.20;68.20
37782;DHT22;23621;50.878;4.584;2022-11-10T14:16:22;20.30;68.20
37782;DHT22;23621;50.878;4.584;2022-11-10T14:19:17;20.30;68.40
37782;DHT22;23621;50.878;4.584;2022-11-10T14:21:55;20.30;68.10
37782;DHT22;23621;50.878;4.584;2022-11-10T14:24:30;20.40;68.30
37782;DHT22;23621;50.878;4.584;2022-11-10T14:27:22;20.40;68.70
37782;DHT22;23621;50.878;4.584;2022-11-10T14:30:04;20.40;68.10
37782;DHT22;23621;50.878;4.584;2022-11-10T14:32:31;20.30;68.10
37782;DHT22;23621;50.878;4.584;2022-11-10T14:34:59;20.30;68.10
37782;DHT22;23621;50.878;4.584;2022-11-10T14:37:45;20.20;67.80
37782;DHT22;23621;50.878;4.584;2022-11-10T14:40:16;20.30;68.10
37782;DHT22;23621;50.878;4.584;2022-11-10T14:42:45;20.30;68.00
37782;DHT22;23621;50.878;4.584;2022-11-10T14:45:20;20.30;68.10
37782;DHT22;23621;50.878;4.584;2022-11-10T14:47:58;20.30;68.00
37782;DHT22;23621;50.878;4.584;2022-11-10T14:50:31;20.30;67.90
37782;DHT22;23621;50.878;4.584;2022-11-10T14:53:11;20.40;68.30
37782;DHT22;23621;50.878;4.584;2022-11-10T14:56:02;20.30;68.10
37782;DHT22;23621;50.878;4.584;2022-11-10T14:58:38;20.30;68.20
37782;DHT22;23621;50.878;4.584;2022-11-10T15:01:06;20.30;68.10
37782;DHT22;23621;50.878;4.584;2022-11-10T15:03:41;20.30;68.20
37782;DHT22;23621;50.878;4.584;2022-11-10T15:06:10;20.30;68.30
37782;DHT22;23621;50.878;4.584;2022-11-10T15:08:57;20.20;68.20
37782;DHT22;23621;50.878;4.584;2022-11-10T15:11:48;20.10;68.20
37782;DHT22;23621;50.878;4.584;2022-11-10T15:14:37;20.20;68.50
37782;DHT22;23621;50.878;4.584;2022-11-10T15:17:11;20.20;68.60
37782;DHT22;23621;50.878;4.584;2022-11-10T15:19:58;20.20;68.70
37782;DHT22;23621;50.878;4.584;2022-11-10T15:22:32;20.10;68.90
37782;DHT22;23621;50.878;4.584;2022-11-10T15:25:21;20.10;69.60
37782;DHT22;23621;50.878;4.584;2022-11-10T15:28:01;19.90;69.80
37782;DHT22;23621;50.878;4.584;2022-11-10T15:30:53;19.80;69.80
37782;DHT22;23621;50.878;4.584;2022-11-10T15:33:27;19.80;70.00
37782;DHT22;23621;50.878;4.584;2022-11-10T15:36:26;19.80;69.90
37782;DHT22;23621;50.878;4.584;2022-11-10T15:39:15;19.80;70.00
37782;DHT22;23621;50.878;4.584;2022-11-10T15:42:11;19.70;70.30
37782;DHT22;23621;50.878;4.584;2022-11-10T15:44:38;19.70;70.20
37782;DHT22;23621;50.878;4.584;2022-11-10T15:47:09;19.60;70.10
37782;DHT22;23621;50.878;4.584;2022-11-10T15:49:41;19.60;70.20
37782;DHT22;23621;50.878;4.584;2022-11-10T15:52:29;19.50;70.20
37782;DHT22;23621;50.878;4.584;2022-11-10T15:54:56;19.40;70.00
37782;DHT22;23621;50.878;4.584;2022-11-10T15:57:32;19.40;70.20
37782;DHT22;23621;50.878;4.584;2022-11-10T16:00:02;19.40;70.00
37782;DHT22;23621;50.878;4.584;2022-11-10T16:02:47;19.40;70.10
37782;DHT22;23621;50.878;4.584;2022-11-10T16:05:14;19.40;70.10
37782;DHT22;23621;50.878;4.584;2022-11-10T16:08:00;19.40;70.20
37782;DHT22;23621;50.878;4.584;2022-11-10T16:10:27;19.40;70.10
37782;DHT22;23621;50.878;4.584;2022-11-10T16:12:56;19.50;70.10
37782;DHT22;23621;50.878;4.584;2022-11-10T16:15:22;19.50;70.10
37782;DHT22;23621;50.878;4.584;2022-11-10T16:18:12;19.50;70.10
37782;DHT22;23621;50.878;4.584;2022-11-10T16:20:39;19.50;70.10
37782;DHT22;23621;50.878;4.584;2022-11-10T16:23:25;19.50;70.20
37782;DHT22;23621;50.878;4.584;2022-11-10T16:25:53;19.40;70.10
37782;DHT22;23621;50.878;4.584;2022-11-10T16:28:40;19.40;70.10
37782;DHT22;23621;50.878;4.584;2022-11-10T16:31:10;19.40;70.10
37782;DHT22;23621;50.878;4.584;2022-11-10T16:33:37;19.40;70.30
37782;DHT22;23621;50.878;4.584;2022-11-10T16:36:04;19.30;70.30
37782;DHT22;23621;50.878;4.584;2022-11-10T16:38:31;19.30;70.50
37782;DHT22;23621;50.878;4.584;2022-11-10T16:41:00;19.30;70.60
37782;DHT22;23621;50.878;4.584;2022-11-10T16:43:29;19.20;70.70
37782;DHT22;23621;50.878;4.584;2022-11-10T16:45:58;19.20;70.80
37782;DHT22;23621;50.878;4.584;2022-11-10T16:48:28;19.20;70.90
37782;DHT22;23621;50.878;4.584;2022-11-10T16:50:57;19.20;71.00
37782;DHT22;23621;50.878;4.584;2022-11-10T16:53:44;19.10;71.00
37782;DHT22;23621;50.878;4.584;2022-11-10T16:56:15;19.10;71.20
37782;DHT22;23621;50.878;4.584;2022-11-10T16:59:00;19.10;71.30
37782;DHT22;23621;50.878;4.584;2022-11-10T17:01:28;19.00;71.30
37782;DHT22;23621;50.878;4.584;2022-11-10T17:03:59;19.00;71.50
37782;DHT22;23621;50.878;4.584;2022-11-10T17:06:29;18.90;71.60
37782;DHT22;23621;50.878;4.584;2022-11-10T17:09:19;18.90;71.80
37782;DHT22;23621;50.878;4.584;2022-11-10T17:11:47;18.90;71.80
37782;DHT22;23621;50.878;4.584;2022-11-10T17:14:14;18.90;72.00
37782;DHT22;23621;50.878;4.584;2022-11-10T17:16:43;18.80;71.90
37782;DHT22;23621;50.878;4.584;2022-11-10T17:19:22;18.80;72.00
37782;DHT22;23621;50.878;4.584;2022-11-10T17:21:51;18.80;72.10
37782;DHT22;23621;50.878;4.584;2022-11-10T17:24:19;18.70;72.40
37782;DHT22;23621;50.878;4.584;2022-11-10T17:26:47;18.60;72.50
37782;DHT22;23621;50.878;4.584;2022-11-10T17:29:19;18.60;72.50
37782;DHT22;23621;50.878;4.584;2022-11-10T17:31:47;18.60;72.50
37782;DHT22;23621;50.878;4.584;2022-11-10T17:34:16;18.70;72.50